Bookmark and Share
Track history (hours):
 

Drifting buoy 13570

Last reported at 2013-Jan-27 22:30 UTC. Time now 2014-Apr-18 10:39 UTC.
Position N 32°00' W 029°09'.
Warning: this ship's position is years out of date!

Barometer 1028.1 mb
Water temperature 19.9 ° C

NotesDate/timePositionNaut miles runAvg speedWind from/ knotsBaromVisibWave heightAir tempDewpointWater temp
2013-Jan-27 22:30N 32°00' W 029°09'1 0.6 1028.1 19.9
2013-Jan-27 21:30N 31°60' W 029°09'2 0.6 1027.9 19.9
2013-Jan-27 18:30N 31°58' W 029°10'0 0.2 1027.5 20.0
2013-Jan-27 17:30N 31°58' W 029°11'1 0.6 1027.3 20.0
2013-Jan-27 15:30N 31°58' W 029°12'0 0.1 1027.1 20.0
2013-Jan-27 13:30N 31°58' W 029°12'1 0.3 1028.4 19.9
2013-Jan-27 11:30N 31°57' W 029°12'1 0.6 1028.8 19.9
2013-Jan-27 10:30N 31°57' W 029°13'2 0.4 1028.5 19.9
2013-Jan-27 05:30N 31°55' W 029°14'0 0.4 1027.5 19.9
2013-Jan-27 04:30N 31°55' W 029°14'1 0.8 1027.9 19.8
2013-Jan-27 03:30N 31°56' W 029°14'0 0.0 1028.3 19.7
2013-Jan-27 02:30N 31°56' W 029°14'0 0.1 1028.4 19.8
2013-Jan-26 23:30N 31°56' W 029°15'1 0.8 1029.0 19.8
2013-Jan-26 22:30N 31°56' W 029°15'0 0.2 1028.9 19.8
2013-Jan-26 21:30N 31°56' W 029°15'2 0.3 1028.8 19.8
2013-Jan-26 15:30N 31°55' W 029°17'2 0.6 1027.9 19.9
2013-Jan-26 11:30N 31°54' W 029°19'1 0.3 1030.3 19.8
2013-Jan-26 09:30N 31°53' W 029°20'0 0.2 1030.0 19.8
2013-Jan-26 06:30N 31°53' W 029°20'0 0.2 1029.5 19.7
2013-Jan-26 05:30N 31°53' W 029°20'1 0.5 1030.0 19.7
2013-Jan-26 04:30N 31°53' W 029°20'0 0.0 1030.2 19.7
2013-Jan-26 03:30N 31°53' W 029°20'0 0.4 1030.4 19.7
2013-Jan-26 02:30N 31°53' W 029°20'1 0.2 1030.8 19.7
2013-Jan-25 23:20N 31°53' W 029°21'1 1.0 1031.5 19.7
2013-Jan-25 22:30N 31°53' W 029°22'1 0.3 1031.6 19.7
2013-Jan-25 20:30N 31°52' W 029°23'1 0.2 1031.3 19.8
2013-Jan-25 17:30N 31°52' W 029°23'1 0.3 1030.5 19.9
2013-Jan-25 14:30N 31°52' W 029°22'1 0.9 1031.2 20.0
2013-Jan-25 13:30N 31°53' W 029°22'1 0.2 1032.0 19.9
2013-Jan-25 10:30N 31°53' W 029°23'0 0.3 1031.9 19.7
2013-Jan-25 09:30N 31°53' W 029°24'1 0.8 1031.6 19.7
2013-Jan-25 08:30N 31°52' W 029°24'0 0.0 1031.3 19.7
2013-Jan-25 07:30N 31°52' W 029°24'0 0.2 1031.1 19.7
2013-Jan-25 06:30N 31°52' W 029°24'1 0.3 1030.9 19.7
2013-Jan-25 04:30N 31°53' W 029°24'0 0.0 1031.6 19.7
2013-Jan-25 03:30N 31°53' W 029°24'0 0.0 1031.9 19.7
2013-Jan-25 02:30N 31°53' W 029°24'2 0.7 1031.9 19.7
2013-Jan-24 23:30N 31°55' W 029°24'1 0.4 1032.0 19.8
2013-Jan-24 21:30N 31°55' W 029°25'0 0.0 1031.7 19.8
2013-Jan-24 19:30N 31°55' W 029°25'1 0.3 1030.7 19.8
2013-Jan-24 17:30N 31°54' W 029°26'0 0.3 1030.0 19.9
2013-Jan-24 16:30N 31°54' W 029°26'0 0.4 1030.1 20.0
2013-Jan-24 15:30N 31°54' W 029°26'0 0.4 1030.0 20.0
2013-Jan-24 14:30N 31°54' W 029°26'0 0.3 1030.7 19.9
2013-Jan-24 13:30N 31°54' W 029°26'0 0.0 1031.4 19.9
2013-Jan-24 12:30N 31°54' W 029°26'1 0.5 1032.0 19.9
2013-Jan-24 10:30N 31°53' W 029°27'0 0.0 1031.1 19.8
2013-Jan-24 09:30N 31°53' W 029°27'1 0.3 1030.6 19.8
2013-Jan-24 06:30N 31°52' W 029°26'0 0.0 1030.0 19.8
2013-Jan-24 05:30N 31°52' W 029°26'1 0.5 1030.0 19.8
2013-Jan-24 04:30N 31°52' W 029°25'0 0.1 1030.1 19.8
2013-Jan-24 03:30N 31°52' W 029°26'1 0.2 1030.4 19.8
2013-Jan-23 23:30N 31°53' W 029°25'0 0.1 1031.0 19.8
2013-Jan-23 22:30N 31°53' W 029°25'0 0.4 1030.9 19.8
2013-Jan-23 21:30N 31°53' W 029°26'0 0.1 1030.8 19.8
2013-Jan-23 20:30N 31°53' W 029°26'0 0.5 1030.4 19.9
2013-Jan-23 19:30N 31°53' W 029°26'0 0.4 1030.1 19.9
2013-Jan-23 18:30N 31°52' W 029°26'0 0.0 1029.7 19.9
2013-Jan-23 17:30N 31°52' W 029°26'0 0.2 1029.6 19.9
2013-Jan-23 16:30N 31°52' W 029°26'0 0.2 1029.6 19.9
2013-Jan-23 14:30N 31°52' W 029°25'1 0.6 1030.4 19.9
2013-Jan-23 12:30N 31°53' W 029°26'0 0.0 1031.9 19.8
2013-Jan-23 11:30N 31°53' W 029°26'0 0.1 1031.6 19.8
2013-Jan-23 10:30N 31°53' W 029°26'1 0.3 1030.9 19.7
2013-Jan-23 07:30N 31°54' W 029°27'0 0.3 1029.9 19.8
2013-Jan-23 06:30N 31°54' W 029°27'2 0.8 1030.0 19.8
2013-Jan-23 03:30N 31°56' W 029°25'2 1.8 1030.9 19.8
2013-Jan-23 02:30N 31°55' W 029°27'2 0.9 1030.8 19.8
2013-Jan-23 00:30N 31°56' W 029°25'1 0.4 1030.9 19.8
2013-Jan-22 22:30N 31°57' W 029°24'0 0.2 1030.0 19.9
2013-Jan-22 20:30N 31°56' W 029°24'1 1.1 1029.7 19.9
2013-Jan-22 19:30N 31°55' W 029°24'0 0.1 1029.2 19.9
2013-Jan-22 17:30N 31°55' W 029°24'1 0.7 1029.1 19.8
2013-Jan-22 16:30N 31°54' W 029°23'0 0.0 1029.0 19.8
2013-Jan-22 15:30N 31°54' W 029°23'1 0.9 1028.9 19.8
2013-Jan-22 14:30N 31°55' W 029°22'1 0.3 1029.2 19.9
2013-Jan-22 11:30N 31°55' W 029°21'0 0.4 1029.8 19.8
2013-Jan-22 10:30N 31°55' W 029°21'0 0.4 1029.0 19.8
2013-Jan-22 09:30N 31°55' W 029°21'0 0.4 1028.5 19.8
2013-Jan-22 08:30N 31°56' W 029°20'0 0.0 1028.3 19.8
2013-Jan-22 07:30N 31°56' W 029°20'1 0.8 1027.9 19.8
2013-Jan-22 06:30N 31°56' W 029°20'0 0.2 1027.5 19.8
2013-Jan-22 05:30N 31°56' W 029°20'0 0.2 1027.6 19.8
2013-Jan-22 04:30N 31°56' W 029°20'0 0.4 1028.1 19.8
2013-Jan-22 03:30N 31°57' W 029°20'1 0.4 1028.2 19.8
2013-Jan-22 00:30N 31°57' W 029°19'0 0.0 1028.2 19.9
2013-Jan-21 22:30N 31°57' W 029°19'1 1.2 1027.8 19.9
2013-Jan-21 21:30N 31°59' W 029°18'3 0.5 1027.4 19.9
2013-Jan-21 16:30N 31°59' W 029°15'0 0.1 1025.3 19.9
2013-Jan-21 15:30N 31°60' W 029°15'1 1.1 1025.0 19.9
2013-Jan-21 14:30N 31°59' W 029°14'0 0.2 1025.3 19.9
2013-Jan-21 13:30N 31°60' W 029°14'0 0.3 1026.3 19.8
2013-Jan-21 12:30N 31°60' W 029°14'1 0.7 1027.0 19.8
2013-Jan-21 11:30N 31°60' W 029°13'1 0.8 1026.7 19.9
2013-Jan-21 10:30N 32°00' W 029°12'2 1.2 1026.1 19.8
2013-Jan-21 08:30N 32°02' W 029°10'1 1.4 1024.6 19.9
2013-Jan-21 07:30N 32°01' W 029°11'1 1.4 1023.9 19.8
2013-Jan-21 06:30N 32°02' W 029°10'0 0.2 1023.7 19.9
2013-Jan-21 05:30N 32°02' W 029°10'0 0.1 1023.5 19.9
2013-Jan-21 04:30N 32°02' W 029°10'1 0.6 1023.5 19.8
2013-Jan-21 03:30N 32°02' W 029°09'0 0.0 1023.7 19.9
2013-Jan-21 01:30N 32°02' W 029°09'2 0.4 1023.9 19.9
2013-Jan-20 21:30N 32°04' W 029°09'1 1.3 1023.5 20.0
2013-Jan-20 20:30N 32°05' W 029°10'0 0.1 1023.3 20.1
2013-Jan-20 18:30N 32°04' W 029°10'2 0.5 1022.9 20.1
2013-Jan-20 15:30N 32°05' W 029°12'1 0.8 1023.2 20.1
2013-Jan-20 14:30N 32°05' W 029°13'0 0.0 1023.7 20.1
2013-Jan-20 13:30N 32°05' W 029°13'1 0.5 1024.8 20.0
2013-Jan-20 11:30N 32°05' W 029°14'0 0.0 1025.4 19.9
2013-Jan-20 10:30N 32°05' W 029°14'0 0.0 1024.6 19.9
2013-Jan-20 09:30N 32°05' W 029°14'1 0.4 1024.4 19.9
2013-Jan-20 05:30N 32°06' W 029°14'0 0.3 1023.5 19.9
2013-Jan-20 04:30N 32°06' W 029°14'1 0.6 1023.9 19.9
2013-Jan-20 03:30N 32°06' W 029°14'0 0.2 1024.4 19.9
2013-Jan-20 01:30N 32°07' W 029°14'0 0.1 1024.8 19.9
2013-Jan-19 22:30N 32°07' W 029°14'0 0.2 1025.5 19.9
2013-Jan-19 21:30N 32°07' W 029°14'2 0.7 1024.9 19.9
2013-Jan-19 18:30N 32°09' W 029°13'0 0.0 1024.5 20.0
2013-Jan-19 17:30N 32°09' W 029°13'1 0.8 1024.4 20.1
2013-Jan-19 16:30N 32°10' W 029°13'0 0.2 1024.6 20.1
2013-Jan-19 15:30N 32°10' W 029°13'1 0.5 1024.6 20.1
2013-Jan-19 12:30N 32°11' W 029°12'1 0.8 1026.6 19.9
2013-Jan-19 11:30N 32°12' W 029°13'0 0.1 1026.7 19.9
2013-Jan-19 10:30N 32°12' W 029°13'1 0.2 1025.9 19.9
2013-Jan-19 07:30N 32°13' W 029°13'1 0.7 1024.8 19.9
2013-Jan-19 05:30N 32°14' W 029°12'0 0.4 1025.5 19.9
2013-Jan-19 04:30N 32°15' W 029°12'3 1.3 1025.7 19.9
2013-Jan-19 02:30N 32°17' W 029°13'1 1.2 1025.7 19.9
2013-Jan-19 01:30N 32°16' W 029°13'2 0.8 1025.7 19.9
2013-Jan-18 23:30N 32°18' W 029°13'1 0.6 1025.7 19.9
2013-Jan-18 21:30N 32°19' W 029°14'1 0.4 1024.8 20.0
2013-Jan-18 19:30N 32°20' W 029°13'1 0.3 1023.9 20.0
2013-Jan-18 15:30N 32°21' W 029°14'1 1.5 1022.7 20.0
2013-Jan-18 14:30N 32°22' W 029°15'0 0.3 1023.1 20.0
2013-Jan-18 13:30N 32°22' W 029°15'0 0.2 1023.7 20.0
2013-Jan-18 12:30N 32°22' W 029°15'0 0.3 1024.8 20.0
2013-Jan-18 11:30N 32°22' W 029°15'0 0.1 1024.9 20.0
2013-Jan-18 09:30N 32°22' W 029°15'2 0.5 1024.1 19.9
2013-Jan-18 06:30N 32°24' W 029°15'1 1.2 1023.4 19.7
2013-Jan-18 05:30N 32°25' W 029°15'1 0.6 1023.0 19.7
2013-Jan-18 04:30N 32°25' W 029°14'1 1.4 1023.4 19.7
2013-Jan-18 03:30N 32°26' W 029°15'1 0.6 1023.2 19.7
2013-Jan-18 01:30N 32°28' W 029°15'0 0.1 1023.0 19.7
2013-Jan-17 23:30N 32°28' W 029°15'0 0.5 1024.5 19.7
2013-Jan-17 22:30N 32°27' W 029°16'   1024.4 19.7

Dump ship's entire track history

sailing weather and tide predictions

Buoy 13570